Time;durP1;ratioP1;P1;durP2;ratioP2;P2;SDS_P1;SDS_P2;PMS_P1;PMS_P2;Temp;Humidity;BMP_temperature;BMP_pressure;BME280_temperature;BME280_humidity;BME280_pressure;Samples;Min_cycle;Max_cycle;Signal;HPM_P1;HPM_P2
2023/01/18 00:00:58;;;;;;;18.70;9.30;;;-0.30;99.90;;;;;;5050969;28;20649;-68
2023/01/18 00:03:25;;;;;;;14.03;9.40;;;-0.30;99.90;;;;;;5044209;28;20202;-70
2023/01/18 00:05:53;;;;;;;16.60;9.60;;;-0.40;99.90;;;;;;5041407;28;20219;-69
2023/01/18 00:08:21;;;;;;;17.23;10.00;;;-0.30;99.90;;;;;;5050296;28;20210;-69
2023/01/18 00:10:48;;;;;;;17.33;10.53;;;-0.40;99.90;;;;;;5041474;28;20205;-68
2023/01/18 00:13:14;;;;;;;19.93;11.07;;;-0.40;99.90;;;;;;5050494;28;20315;-69
2023/01/18 00:15:41;;;;;;;18.77;11.03;;;-0.50;99.90;;;;;;5046633;28;20205;-69
2023/01/18 00:18:08;;;;;;;15.47;10.07;;;-0.50;99.90;;;;;;5044865;28;20223;-68
2023/01/18 00:20:34;;;;;;;20.17;10.37;;;-0.60;99.90;;;;;;5042728;28;20204;-68
2023/01/18 00:23:01;;;;;;;15.80;10.90;;;-0.60;99.90;;;;;;5049552;28;20671;-68
2023/01/18 00:25:29;;;;;;;17.83;10.60;;;-0.60;99.90;;;;;;5027289;28;20209;-68
2023/01/18 00:27:56;;;;;;;15.33;10.17;;;-0.70;99.90;;;;;;5046012;28;20207;-68
2023/01/18 00:30:26;;;;;;;21.70;10.80;;;-0.70;99.90;;;;;;5052459;28;20267;-68
2023/01/18 00:32:57;;;;;;;16.63;10.07;;;-0.70;99.90;;;;;;5049366;28;20214;-68
2023/01/18 00:35:25;;;;;;;18.17;10.60;;;-0.70;99.90;;;;;;5043849;28;20203;-69
2023/01/18 00:37:52;;;;;;;16.90;10.63;;;-0.80;99.90;;;;;;5048076;28;20704;-68
2023/01/18 00:40:21;;;;;;;19.43;10.87;;;-0.70;99.90;;;;;;5048478;28;20236;-70
2023/01/18 00:45:33;;;;;;;17.33;11.00;;;-0.80;99.90;;;;;;5043875;28;20827;-68
2023/01/18 00:48:01;;;;;;;17.83;10.63;;;-0.80;99.90;;;;;;5052339;28;20284;-70
2023/01/18 00:50:28;;;;;;;18.83;10.30;;;-0.80;99.90;;;;;;5047934;28;20571;-68
2023/01/18 00:52:57;;;;;;;16.03;9.80;;;-0.80;99.90;;;;;;5050529;28;20661;-68
2023/01/18 00:55:25;;;;;;;17.43;9.63;;;-0.80;99.90;;;;;;5040254;28;20280;-67
2023/01/18 00:57:51;;;;;;;18.33;10.10;;;-0.80;99.90;;;;;;5050108;28;20222;-68
2023/01/18 01:00:19;;;;;;;17.47;9.83;;;-0.80;99.90;;;;;;5042329;28;20661;-70
2023/01/18 01:02:45;;;;;;;18.37;10.70;;;-0.90;99.90;;;;;;5041810;28;20253;-68
2023/01/18 01:08:04;;;;;;;18.53;10.10;;;-0.90;99.90;;;;;;5044050;28;20305;-68
2023/01/18 01:10:34;;;;;;;17.73;10.70;;;-0.90;99.90;;;;;;5026236;28;20276;-68
2023/01/18 01:26:49;;;;;;;19.43;11.23;;;-1.20;99.90;;;;;;5044133;28;20199;-68
2023/01/18 01:29:16;;;;;;;15.50;10.63;;;-1.20;99.90;;;;;;5044349;28;20305;-68
2023/01/18 01:31:43;;;;;;;17.37;10.60;;;-1.20;99.90;;;;;;5040165;28;20308;-69
2023/01/18 01:34:09;;;;;;;17.13;10.80;;;-1.30;99.90;;;;;;5045090;28;20225;-68
2023/01/18 01:36:36;;;;;;;17.40;10.47;;;-1.30;99.90;;;;;;5036680;28;20677;-69
2023/01/18 01:39:05;;;;;;;17.63;10.97;;;-1.30;99.90;;;;;;5044096;28;20771;-68
2023/01/18 01:41:33;;;;;;;18.70;11.30;;;-1.30;99.90;;;;;;5027192;28;20269;-67
2023/01/18 01:44:18;;;;;;;20.07;11.57;;;-1.30;99.90;;;;;;5046164;28;20236;-68
2023/01/18 01:46:48;;;;;;;17.17;10.77;;;-1.30;99.90;;;;;;5041977;28;20275;-67
2023/01/18 01:49:41;;;;;;;21.13;11.43;;;-1.30;99.90;;;;;;5040037;28;20203;-67
2023/01/18 01:52:12;;;;;;;19.27;11.50;;;-1.30;99.90;;;;;;5044517;28;20291;-67
2023/01/18 01:55:03;;;;;;;17.07;10.23;;;-1.30;99.90;;;;;;5043174;28;20237;-68
2023/01/18 01:57:35;;;;;;;16.47;10.97;;;-1.30;99.90;;;;;;5045668;28;20216;-69
2023/01/18 02:00:19;;;;;;;17.73;11.50;;;-1.30;99.90;;;;;;5039514;28;20226;-69
2023/01/18 02:02:59;;;;;;;17.43;11.37;;;-1.30;99.90;;;;;;5044770;28;20609;-68
2023/01/18 02:05:29;;;;;;;20.13;11.07;;;-1.30;99.90;;;;;;5044947;28;20245;-68
2023/01/18 02:08:01;;;;;;;25.90;11.70;;;-1.40;99.90;;;;;;5042371;28;20205;-68
2023/01/18 02:10:29;;;;;;;22.93;11.83;;;-1.40;99.90;;;;;;5042204;28;20294;-68
2023/01/18 02:12:57;;;;;;;17.60;11.00;;;-1.40;99.90;;;;;;5046933;28;20201;-68
2023/01/18 02:15:35;;;;;;;20.80;12.07;;;-1.40;99.90;;;;;;5031557;28;20236;-69
2023/01/18 02:18:31;;;;;;;22.93;11.07;;;-1.40;99.90;;;;;;5042269;28;20224;-68
2023/01/18 02:21:35;;;;;;;22.73;13.10;;;-1.40;99.90;;;;;;5047712;28;20203;-67
2023/01/18 02:24:16;;;;;;;23.83;12.20;;;-1.50;99.90;;;;;;4993659;28;20595;-69
2023/01/18 02:26:49;;;;;;;23.63;12.33;;;-1.50;99.90;;;;;;5047862;28;20288;-69
2023/01/18 02:29:27;;;;;;;24.47;13.53;;;-1.40;99.90;;;;;;5049197;28;20209;-69
2023/01/18 02:32:01;;;;;;;21.40;12.57;;;-1.50;99.90;;;;;;5043521;28;20226;-68
2023/01/18 02:34:34;;;;;;;21.40;12.77;;;-1.50;99.90;;;;;;5051063;28;20229;-69
2023/01/18 02:37:19;;;;;;;22.10;13.23;;;-1.50;99.90;;;;;;5043340;28;20209;-68
2023/01/18 02:39:55;;;;;;;25.10;12.83;;;-1.50;99.90;;;;;;5047483;28;20234;-68
2023/01/18 02:48:17;;;;;;;25.60;13.47;;;-1.50;99.90;;;;;;5042416;28;20235;-68
2023/01/18 02:50:44;;;;;;;29.20;14.87;;;-1.60;99.90;;;;;;5045839;28;20209;-68
2023/01/18 02:53:13;;;;;;;28.80;14.30;;;-1.60;99.90;;;;;;5022579;28;20202;-68
2023/01/18 02:55:52;;;;;;;21.90;13.77;;;-1.60;99.90;;;;;;5044577;28;20313;-68
2023/01/18 02:58:23;;;;;;;25.00;15.40;;;-1.60;99.90;;;;;;5039100;28;20213;-69
2023/01/18 03:01:08;;;;;;;21.50;14.23;;;-1.60;99.90;;;;;;5051247;28;20234;-68
2023/01/18 03:03:37;;;;;;;25.97;15.43;;;-1.60;99.90;;;;;;5047797;28;20213;-67
2023/01/18 03:06:06;;;;;;;25.93;15.77;;;-1.60;99.90;;;;;;5045694;28;20201;-68
2023/01/18 03:08:40;;;;;;;27.33;15.73;;;-1.70;99.90;;;;;;5029789;28;20225;-68
2023/01/18 03:11:12;;;;;;;34.20;17.17;;;-1.60;99.90;;;;;;5044638;28;20240;-68
2023/01/18 03:14:10;;;;;;;25.73;15.87;;;-1.60;99.90;;;;;;5050957;28;20198;-68
2023/01/18 03:16:56;;;;;;;26.40;15.57;;;-1.70;99.90;;;;;;5041293;28;20229;-68
2023/01/18 03:23:36;;;;;;;25.73;15.57;;;-1.70;99.90;;;;;;5048772;28;20205;-68
2023/01/18 03:25:16;;;;;;;32.27;16.07;;;-1.80;99.90;;;;;;5040777;28;20212;-68
2023/01/18 03:36:11;;;;;;;30.07;17.60;;;-1.70;99.90;;;;;;5044504;28;20724;-69
2023/01/18 03:38:41;;;;;;;33.40;17.27;;;-1.80;99.90;;;;;;5038931;28;20217;-69
2023/01/18 03:41:10;;;;;;;33.17;18.87;;;-1.80;99.90;;;;;;5036554;28;20214;-69
2023/01/18 03:43:40;;;;;;;27.40;17.90;;;-1.80;99.90;;;;;;5041886;28;20290;-69
2023/01/18 03:46:07;;;;;;;30.90;16.83;;;-1.80;99.90;;;;;;5048492;28;20239;-68
2023/01/18 03:48:35;;;;;;;32.37;18.20;;;-1.80;99.90;;;;;;5046435;28;20299;-69
2023/01/18 03:51:14;;;;;;;29.37;18.17;;;-1.70;99.90;;;;;;5039820;28;20677;-68
2023/01/18 03:54:02;;;;;;;31.97;18.80;;;-1.70;99.90;;;;;;5048606;28;20219;-69
2023/01/18 03:57:18;;;;;;;30.47;16.70;;;-1.60;99.90;;;;;;5042277;28;20310;-69
2023/01/18 03:59:46;;;;;;;30.10;17.40;;;-1.60;99.90;;;;;;4949297;28;20223;-68
2023/01/18 04:02:15;;;;;;;32.17;16.60;;;-1.60;99.90;;;;;;5028266;28;20222;-68
2023/01/18 04:04:42;;;;;;;28.33;16.87;;;-1.60;99.90;;;;;;5047381;28;20292;-68
2023/01/18 04:07:09;;;;;;;26.17;16.83;;;-1.60;99.90;;;;;;5046867;28;20546;-69
2023/01/18 04:09:36;;;;;;;34.10;17.93;;;-1.70;99.90;;;;;;5048158;28;20213;-68
2023/01/18 04:12:02;;;;;;;30.17;17.70;;;-1.70;99.90;;;;;;5024901;28;20292;-68
2023/01/18 04:14:29;;;;;;;32.93;18.93;;;-1.70;99.90;;;;;;5054212;28;20320;-69
2023/01/18 04:16:56;;;;;;;32.33;19.17;;;-1.70;99.90;;;;;;5042030;28;20321;-69
2023/01/18 04:19:23;;;;;;;32.03;17.77;;;-1.70;99.90;;;;;;5052056;28;21433;-69
2023/01/18 04:21:49;;;;;;;29.93;17.43;;;-1.60;99.90;;;;;;5045438;28;20212;-69
2023/01/18 04:24:16;;;;;;;31.43;17.83;;;-1.60;99.90;;;;;;5048994;28;20675;-69
2023/01/18 04:26:43;;;;;;;32.97;18.13;;;-1.60;99.90;;;;;;5049177;28;20202;-68
2023/01/18 04:29:09;;;;;;;33.57;18.07;;;-1.60;99.90;;;;;;5043613;28;20206;-67
2023/01/18 04:31:36;;;;;;;34.63;18.13;;;-1.50;99.90;;;;;;5048400;28;20243;-68
2023/01/18 04:34:03;;;;;;;29.37;18.80;;;-1.50;99.90;;;;;;5046362;28;20207;-67
2023/01/18 04:36:30;;;;;;;33.27;17.63;;;-1.50;99.90;;;;;;5040165;28;20205;-68
2023/01/18 04:38:58;;;;;;;33.37;18.50;;;-1.50;99.90;;;;;;5046701;28;20281;-68
2023/01/18 04:41:24;;;;;;;29.30;17.37;;;-1.50;99.90;;;;;;5042921;28;20211;-68
2023/01/18 04:43:51;;;;;;;29.17;17.60;;;-1.40;99.90;;;;;;5045092;28;20210;-68
2023/01/18 04:46:18;;;;;;;29.73;16.30;;;-1.40;99.90;;;;;;5042085;28;20222;-68
2023/01/18 04:48:49;;;;;;;26.57;15.87;;;-1.40;99.90;;;;;;5048728;28;20210;-69
2023/01/18 04:51:17;;;;;;;27.03;16.47;;;-1.40;99.90;;;;;;5040926;28;20623;-68
2023/01/18 04:53:44;;;;;;;26.13;15.73;;;-1.40;99.90;;;;;;5050061;28;20198;-67
2023/01/18 04:56:11;;;;;;;26.67;16.27;;;-1.40;99.90;;;;;;5039323;28;20249;-69
2023/01/18 04:58:38;;;;;;;28.43;16.37;;;-1.40;99.90;;;;;;5041244;28;20313;-68
2023/01/18 05:01:07;;;;;;;26.07;15.83;;;-1.50;99.90;;;;;;5043890;28;20214;-69
2023/01/18 05:03:37;;;;;;;30.60;16.70;;;-1.50;99.90;;;;;;5042838;28;20229;-68
2023/01/18 05:06:09;;;;;;;26.97;16.90;;;-1.50;99.90;;;;;;5044867;28;20626;-68
2023/01/18 05:08:39;;;;;;;26.00;17.03;;;-1.60;99.90;;;;;;5021329;28;20561;-69
2023/01/18 05:11:15;;;;;;;29.37;17.17;;;-1.60;99.90;;;;;;5041434;28;20216;-67
2023/01/18 05:13:44;;;;;;;25.43;14.90;;;-1.60;99.90;;;;;;5046222;28;20213;-69
2023/01/18 05:16:18;;;;;;;24.53;15.60;;;-1.60;99.90;;;;;;5028468;28;20328;-68
2023/01/18 05:18:46;;;;;;;28.20;17.00;;;-1.60;99.90;;;;;;5041787;28;20197;-68
2023/01/18 05:21:14;;;;;;;28.97;17.90;;;-1.60;99.90;;;;;;5040929;28;20210;-68
2023/01/18 05:23:49;;;;;;;28.50;16.47;;;-1.70;99.90;;;;;;5040763;28;20227;-68
2023/01/18 05:26:19;;;;;;;25.53;17.13;;;-1.70;99.90;;;;;;5047649;28;20208;-68
2023/01/18 05:28:47;;;;;;;36.20;17.67;;;-1.70;99.90;;;;;;5045817;28;20216;-69
2023/01/18 05:31:15;;;;;;;31.77;17.33;;;-1.70;99.90;;;;;;5044948;28;20753;-68
2023/01/18 05:33:41;;;;;;;29.70;17.07;;;-1.70;99.90;;;;;;5045457;28;20210;-68
2023/01/18 05:36:08;;;;;;;34.87;18.33;;;-1.70;99.90;;;;;;5041024;28;20282;-70
2023/01/18 05:38:35;;;;;;;30.70;17.70;;;-1.80;99.90;;;;;;5024870;28;20198;-69
2023/01/18 05:41:02;;;;;;;28.17;17.20;;;-1.80;99.90;;;;;;5046194;28;20237;-69
2023/01/18 05:43:29;;;;;;;31.33;17.43;;;-1.80;99.90;;;;;;5045196;28;20233;-69
2023/01/18 05:45:57;;;;;;;34.00;18.47;;;-1.80;99.90;;;;;;5045010;28;21083;-69
2023/01/18 05:48:25;;;;;;;31.77;19.53;;;-1.80;99.90;;;;;;5047126;28;20206;-68
2023/01/18 05:50:51;;;;;;;33.20;19.17;;;-1.80;99.90;;;;;;5043055;28;20240;-68
2023/01/18 05:53:21;;;;;;;36.20;21.20;;;-1.80;99.90;;;;;;5039558;28;20202;-69
2023/01/18 05:56:02;;;;;;;36.40;20.33;;;-1.70;99.90;;;;;;5042500;28;20269;-68
2023/01/18 05:58:28;;;;;;;31.60;19.07;;;-1.70;99.90;;;;;;5040286;28;20286;-68
2023/01/18 06:00:55;;;;;;;33.47;18.47;;;-1.60;99.90;;;;;;5049277;28;20727;-69
2023/01/18 06:03:24;;;;;;;30.03;17.87;;;-1.60;99.90;;;;;;5049014;28;20539;-68
2023/01/18 06:05:51;;;;;;;32.37;17.77;;;-1.60;99.90;;;;;;5044134;28;20392;-68
2023/01/18 06:08:18;;;;;;;31.23;17.03;;;-1.50;99.90;;;;;;5028158;28;20293;-69
2023/01/18 06:10:52;;;;;;;28.67;16.37;;;-1.50;99.90;;;;;;5051827;28;20276;-68
2023/01/18 06:13:19;;;;;;;28.07;16.33;;;-1.50;99.90;;;;;;5053091;28;20205;-68
2023/01/18 06:15:46;;;;;;;31.60;17.47;;;-1.50;99.90;;;;;;5056089;28;20222;-69
2023/01/18 06:18:15;;;;;;;28.00;17.10;;;-1.50;99.90;;;;;;5034323;28;20217;-69
2023/01/18 06:20:42;;;;;;;27.20;15.23;;;-1.50;99.90;;;;;;5050450;28;20202;-68
2023/01/18 06:23:08;;;;;;;29.87;15.67;;;-1.40;99.90;;;;;;5050506;28;20292;-69
2023/01/18 06:25:35;;;;;;;31.30;16.47;;;-1.40;99.90;;;;;;5045204;28;20629;-69
2023/01/18 06:28:03;;;;;;;25.10;14.87;;;-1.40;99.90;;;;;;5029901;28;20194;-69
2023/01/18 06:30:32;;;;;;;26.60;16.37;;;-1.40;99.90;;;;;;5047293;28;20725;-69
2023/01/18 06:33:03;;;;;;;31.73;15.83;;;-1.40;99.90;;;;;;5049212;28;20305;-68
2023/01/18 06:35:30;;;;;;;24.97;14.70;;;-1.40;99.90;;;;;;5051665;28;20232;-70
2023/01/18 06:37:57;;;;;;;27.53;16.40;;;-1.40;99.90;;;;;;5046668;28;20205;-69
2023/01/18 06:40:24;;;;;;;24.20;15.67;;;-1.50;99.90;;;;;;5042763;28;20276;-68
2023/01/18 06:42:51;;;;;;;27.10;16.40;;;-1.50;99.90;;;;;;5047727;28;20221;-70
2023/01/18 06:45:20;;;;;;;28.20;16.10;;;-1.40;99.90;;;;;;5051313;28;20753;-68
2023/01/18 06:47:48;;;;;;;25.40;15.57;;;-1.40;99.90;;;;;;5041520;28;20242;-68
2023/01/18 06:50:15;;;;;;;25.03;15.27;;;-1.40;99.90;;;;;;5044999;28;20294;-68
2023/01/18 06:52:43;;;;;;;26.37;15.10;;;-1.40;99.90;;;;;;5046393;28;20246;-69
2023/01/18 06:55:11;;;;;;;26.00;15.83;;;-1.40;99.90;;;;;;5034226;28;20225;-67
2023/01/18 06:57:38;;;;;;;24.93;15.43;;;-1.40;99.90;;;;;;5041921;28;20292;-68
2023/01/18 07:00:06;;;;;;;29.30;16.57;;;-1.30;99.90;;;;;;5041380;28;20303;-68
2023/01/18 07:02:34;;;;;;;24.63;15.37;;;-1.30;99.90;;;;;;5045714;28;20211;-68
2023/01/18 07:05:01;;;;;;;22.13;14.10;;;-1.30;99.90;;;;;;5047245;28;20521;-68
2023/01/18 07:07:28;;;;;;;23.83;14.83;;;-1.30;99.90;;;;;;5043207;28;20303;-68
2023/01/18 07:09:55;;;;;;;26.77;15.73;;;-1.30;99.90;;;;;;5026717;28;20213;-68
2023/01/18 07:12:22;;;;;;;28.30;15.07;;;-1.30;99.90;;;;;;5044740;28;20670;-68
2023/01/18 07:14:49;;;;;;;29.47;17.13;;;-1.40;99.90;;;;;;5044212;28;20197;-69
2023/01/18 07:17:15;;;;;;;27.80;17.07;;;-1.40;99.90;;;;;;5046824;28;20367;-69
2023/01/18 07:19:43;;;;;;;25.37;14.97;;;-1.40;99.90;;;;;;5040563;28;20206;-69
2023/01/18 07:22:11;;;;;;;26.37;15.50;;;-1.40;99.90;;;;;;5048876;28;20200;-68
2023/01/18 07:24:37;;;;;;;28.63;16.17;;;-1.50;99.90;;;;;;5039582;28;20208;-67
2023/01/18 07:27:04;;;;;;;28.50;15.67;;;-1.50;99.90;;;;;;5041000;28;20655;-68
2023/01/18 07:29:31;;;;;;;25.87;16.13;;;-1.50;99.90;;;;;;5022660;28;20283;-69
2023/01/18 07:31:59;;;;;;;26.17;15.30;;;-1.50;99.90;;;;;;5041679;28;20647;-67
2023/01/18 07:34:26;;;;;;;28.67;15.77;;;-1.50;99.90;;;;;;5037684;28;20202;-68
2023/01/18 07:36:53;;;;;;;28.70;16.43;;;-1.50;99.90;;;;;;5049671;28;20640;-69
2023/01/18 07:39:23;;;;;;;30.20;17.23;;;-1.50;99.90;;;;;;5038556;28;20317;-69
2023/01/18 07:41:50;;;;;;;26.57;15.93;;;-1.50;99.90;;;;;;5039168;28;20213;-68
2023/01/18 07:44:17;;;;;;;29.60;17.30;;;-1.50;99.90;;;;;;5029942;28;20276;-70
2023/01/18 07:46:44;;;;;;;29.27;16.10;;;-1.50;99.90;;;;;;5043816;28;20580;-70
2023/01/18 07:49:11;;;;;;;27.37;16.10;;;-1.50;99.90;;;;;;5035517;28;20276;-69
2023/01/18 07:51:40;;;;;;;26.87;16.60;;;-1.60;99.90;;;;;;5046186;28;20197;-69
2023/01/18 07:54:06;;;;;;;28.27;16.57;;;-1.60;99.90;;;;;;5029887;28;20201;-69
2023/01/18 07:56:33;;;;;;;34.93;16.77;;;-1.50;99.90;;;;;;5029801;28;20258;-69
2023/01/18 07:59:00;;;;;;;26.80;16.00;;;-1.60;99.90;;;;;;5049669;28;20198;-70
2023/01/18 08:01:27;;;;;;;29.40;17.33;;;-1.60;99.90;;;;;;5046553;28;20227;-69
2023/01/18 08:03:53;;;;;;;28.83;16.07;;;-1.50;99.90;;;;;;5033965;28;20214;-68
2023/01/18 08:06:26;;;;;;;27.90;15.63;;;-1.50;99.90;;;;;;5054733;28;20205;-69
2023/01/18 08:08:55;;;;;;;27.90;16.50;;;-1.50;99.90;;;;;;5048285;28;20201;-69
2023/01/18 08:11:22;;;;;;;27.90;16.80;;;-1.40;99.90;;;;;;5046767;28;20209;-70
2023/01/18 08:13:51;;;;;;;29.27;17.43;;;-1.30;99.90;;;;;;5048038;28;20197;-69
2023/01/18 08:16:18;;;;;;;26.10;15.70;;;-1.30;99.90;;;;;;5047802;28;20240;-71
2023/01/18 08:18:48;;;;;;;29.73;17.00;;;-1.40;99.90;;;;;;5045506;28;20799;-69
2023/01/18 08:21:14;;;;;;;27.60;16.40;;;-1.40;99.90;;;;;;5039590;28;20241;-70
2023/01/18 08:23:41;;;;;;;34.20;18.17;;;-1.40;99.90;;;;;;5048283;28;20193;-71
2023/01/18 08:26:11;;;;;;;28.77;16.63;;;-1.40;99.90;;;;;;5043157;28;20213;-69
2023/01/18 08:28:40;;;;;;;23.27;14.73;;;-1.40;99.90;;;;;;5049808;28;20311;-70
2023/01/18 08:31:15;;;;;;;28.90;15.97;;;-1.40;99.90;;;;;;5045810;28;20210;-69
2023/01/18 08:33:45;;;;;;;28.57;16.40;;;-1.40;99.90;;;;;;5046163;28;20288;-69
2023/01/18 08:36:15;;;;;;;33.27;16.13;;;-1.40;99.90;;;;;;5042106;28;20226;-69
2023/01/18 08:38:42;;;;;;;24.20;16.20;;;-1.40;99.90;;;;;;5040743;28;20275;-69
2023/01/18 08:41:09;;;;;;;28.23;15.47;;;-1.30;99.90;;;;;;5046125;28;20284;-69
2023/01/18 08:43:35;;;;;;;30.43;16.67;;;-1.30;99.90;;;;;;5061171;28;20247;-68
2023/01/18 08:46:02;;;;;;;31.53;17.50;;;-1.20;99.90;;;;;;5045318;28;20198;-69
2023/01/18 08:48:29;;;;;;;32.50;17.10;;;-1.20;99.90;;;;;;5041971;28;20776;-70
2023/01/18 08:51:00;;;;;;;34.27;17.33;;;-1.20;99.90;;;;;;5046914;28;20211;-70
2023/01/18 08:53:27;;;;;;;32.07;16.93;;;-1.10;99.90;;;;;;5047760;28;20197;-70
2023/01/18 08:55:54;;;;;;;24.60;16.53;;;-1.10;99.90;;;;;;5024073;28;20258;-69
2023/01/18 08:58:21;;;;;;;35.00;17.97;;;-1.10;99.90;;;;;;5049543;28;20208;-70
2023/01/18 09:00:49;;;;;;;28.03;16.70;;;-1.00;99.90;;;;;;5041264;28;20202;-69
2023/01/18 09:03:22;;;;;;;28.67;18.23;;;-1.00;99.90;;;;;;5046483;28;20238;-70
2023/01/18 09:05:49;;;;;;;32.80;17.23;;;-0.90;99.90;;;;;;5041028;28;20231;-70
2023/01/18 09:08:16;;;;;;;29.23;18.03;;;-0.90;99.90;;;;;;5027308;28;20462;-70
2023/01/18 09:10:43;;;;;;;33.10;17.57;;;-0.90;99.90;;;;;;5041646;28;20217;-70
2023/01/18 09:13:11;;;;;;;26.17;16.40;;;-0.90;99.90;;;;;;5050044;28;20571;-68
2023/01/18 09:15:37;;;;;;;32.13;18.00;;;-0.80;99.90;;;;;;5042069;28;20254;-70
2023/01/18 09:18:06;;;;;;;28.90;17.23;;;-0.80;99.90;;;;;;5051452;28;20225;-71
2023/01/18 09:20:34;;;;;;;27.23;16.27;;;-0.80;99.90;;;;;;5045459;28;20260;-69
2023/01/18 09:23:07;;;;;;;25.70;16.37;;;-0.70;99.90;;;;;;5044249;28;20722;-69
2023/01/18 09:25:36;;;;;;;29.93;17.03;;;-0.60;99.90;;;;;;5042974;28;20217;-70
2023/01/18 09:28:04;;;;;;;26.50;14.87;;;-0.50;99.90;;;;;;5042012;28;20722;-70
2023/01/18 09:30:31;;;;;;;30.63;15.90;;;-0.40;99.90;;;;;;5026659;28;20638;-68
2023/01/18 09:32:59;;;;;;;25.57;15.53;;;-0.30;99.90;;;;;;5046708;28;20269;-71
2023/01/18 09:35:26;;;;;;;26.33;15.17;;;-0.20;99.90;;;;;;5045777;28;20211;-69
2023/01/18 09:37:55;;;;;;;26.73;13.70;;;-0.10;99.90;;;;;;5049308;28;20205;-68
2023/01/18 09:40:39;;;;;;;25.07;13.90;;;0.10;99.90;;;;;;5044886;28;20711;-69
2023/01/18 09:43:19;;;;;;;25.13;12.60;;;0.20;99.90;;;;;;5045478;28;20211;-69
2023/01/18 09:45:47;;;;;;;20.43;11.10;;;0.30;99.90;;;;;;5047310;28;20206;-70
2023/01/18 09:48:25;;;;;;;16.07;12.23;;;0.50;99.90;;;;;;5043428;28;20213;-69
2023/01/18 09:50:53;;;;;;;18.03;12.23;;;0.60;99.90;;;;;;5044430;28;20207;-68
2023/01/18 09:53:51;;;;;;;18.50;10.87;;;0.60;99.90;;;;;;5039692;28;20219;-69
2023/01/18 09:56:26;;;;;;;18.03;10.27;;;0.70;99.90;;;;;;5024723;28;20649;-70
2023/01/18 09:59:02;;;;;;;18.13;11.00;;;0.80;99.90;;;;;;5039009;28;20731;-69
2023/01/18 10:01:31;;;;;;;15.87;9.80;;;0.90;99.90;;;;;;5044379;28;20235;-70
2023/01/18 10:04:15;;;;;;;15.03;10.83;;;1.00;99.90;;;;;;5041626;28;20511;-70
2023/01/18 10:06:51;;;;;;;16.20;9.57;;;1.00;99.90;;;;;;5049444;28;20231;-70
2023/01/18 10:09:22;;;;;;;17.13;9.80;;;1.10;99.90;;;;;;5040078;28;20304;-69
2023/01/18 10:12:13;;;;;;;18.17;11.00;;;1.10;99.90;;;;;;5028597;28;20201;-69
2023/01/18 10:15:16;;;;;;;17.93;10.43;;;1.20;99.90;;;;;;5045748;28;20209;-70
2023/01/18 10:17:43;;;;;;;14.87;10.23;;;1.20;99.90;;;;;;5003603;28;20286;-69
2023/01/18 10:20:23;;;;;;;15.70;10.47;;;1.30;99.90;;;;;;5041233;28;20215;-68
2023/01/18 10:23:14;;;;;;;16.73;10.73;;;1.30;99.90;;;;;;5049731;28;20193;-70
2023/01/18 10:26:06;;;;;;;15.43;9.40;;;1.40;99.90;;;;;;5044232;28;20731;-71
2023/01/18 10:28:55;;;;;;;16.17;11.00;;;1.40;99.90;;;;;;5038906;28;20216;-69
2023/01/18 10:31:28;;;;;;;15.37;9.70;;;1.40;99.90;;;;;;5044753;28;20325;-69
2023/01/18 10:33:58;;;;;;;12.63;10.17;;;1.40;99.90;;;;;;5041583;28;20248;-68
2023/01/18 10:36:37;;;;;;;17.57;9.80;;;1.50;99.90;;;;;;5043872;28;20316;-70
2023/01/18 10:39:26;;;;;;;15.37;10.80;;;1.60;99.90;;;;;;5028747;28;20221;-69
2023/01/18 10:41:59;;;;;;;13.93;9.83;;;1.60;99.90;;;;;;5043357;28;20252;-70
2023/01/18 10:44:26;;;;;;;18.03;11.10;;;1.60;99.90;;;;;;5044231;28;20244;-69
2023/01/18 10:47:01;;;;;;;16.07;10.20;;;1.70;99.90;;;;;;5046513;28;20268;-68
2023/01/18 10:49:39;;;;;;;18.43;10.30;;;1.70;99.90;;;;;;5049237;28;20242;-69
2023/01/18 10:52:27;;;;;;;16.43;9.87;;;1.80;99.90;;;;;;5042042;28;20696;-69
2023/01/18 10:54:56;;;;;;;15.50;10.10;;;1.80;99.90;;;;;;5053570;28;20210;-69
2023/01/18 10:57:29;;;;;;;15.60;9.83;;;1.80;99.90;;;;;;5043836;28;20324;-69
2023/01/18 10:59:57;;;;;;;16.90;10.30;;;1.90;99.90;;;;;;5049156;28;20720;-69
2023/01/18 11:02:35;;;;;;;14.30;9.90;;;1.90;99.90;;;;;;5045112;28;20228;-69
2023/01/18 11:05:29;;;;;;;15.27;10.70;;;2.00;99.90;;;;;;5040715;28;20292;-70
2023/01/18 11:08:17;;;;;;;14.90;10.13;;;2.00;99.90;;;;;;5051226;28;20241;-70
2023/01/18 11:10:44;;;;;;;15.17;10.20;;;2.10;99.90;;;;;;5048497;28;20596;-69
2023/01/18 11:13:30;;;;;;;14.53;9.40;;;2.10;99.90;;;;;;5043876;28;20299;-69
2023/01/18 11:16:23;;;;;;;15.30;10.23;;;2.20;99.90;;;;;;5044583;28;20708;-69
2023/01/18 11:19:03;;;;;;;21.50;11.57;;;2.20;99.90;;;;;;5039692;28;20213;-69
2023/01/18 11:21:39;;;;;;;16.93;9.97;;;2.30;99.90;;;;;;5054618;28;20195;-69
2023/01/18 11:24:12;;;;;;;15.17;9.93;;;2.30;99.90;;;;;;5043773;28;20209;-72
2023/01/18 11:27:04;;;;;;;14.00;9.90;;;2.40;99.90;;;;;;5049154;28;20702;-70
2023/01/18 11:29:37;;;;;;;16.67;10.23;;;2.50;99.90;;;;;;5047460;28;20199;-69
2023/01/18 11:32:13;;;;;;;19.57;9.63;;;2.50;99.90;;;;;;5045204;28;20757;-69
2023/01/18 11:34:45;;;;;;;15.80;10.00;;;2.50;99.90;;;;;;5054415;28;20587;-69
2023/01/18 11:37:34;;;;;;;14.33;9.63;;;2.60;99.90;;;;;;5043852;28;20703;-69
2023/01/18 11:40:19;;;;;;;14.83;9.40;;;2.70;99.90;;;;;;5045068;28;20326;-69
2023/01/18 11:42:49;;;;;;;16.07;9.10;;;2.70;99.90;;;;;;5041334;28;20301;-68
2023/01/18 11:45:28;;;;;;;14.90;9.03;;;2.70;99.90;;;;;;5040429;28;20199;-70
2023/01/18 11:48:16;;;;;;;22.40;10.00;;;2.80;99.90;;;;;;5045824;28;20227;-69
2023/01/18 11:50:51;;;;;;;13.60;10.60;;;2.90;99.90;;;;;;5043189;28;20199;-69
2023/01/18 11:53:42;;;;;;;11.67;8.73;;;2.90;99.90;;;;;;5036898;28;20241;-69
2023/01/18 11:56:30;;;;;;;13.00;8.97;;;2.90;99.90;;;;;;5044101;28;20249;-69
2023/01/18 11:58:59;;;;;;;14.13;9.80;;;3.00;99.90;;;;;;5048717;28;20205;-70
2023/01/18 12:01:57;;;;;;;13.33;9.00;;;3.00;99.90;;;;;;5049132;28;20688;-70
2023/01/18 12:04:39;;;;;;;14.40;9.57;;;3.10;99.90;;;;;;5032650;28;20218;-69
2023/01/18 12:07:40;;;;;;;13.87;8.77;;;3.10;99.90;;;;;;5041559;28;20238;-69
2023/01/18 12:10:17;;;;;;;13.70;8.80;;;3.10;99.90;;;;;;5050943;28;20212;-69
2023/01/18 12:12:59;;;;;;;14.27;8.63;;;3.20;99.90;;;;;;5051545;28;20569;-69
2023/01/18 12:15:50;;;;;;;14.03;9.13;;;3.20;99.90;;;;;;5040317;28;20207;-70
2023/01/18 12:18:39;;;;;;;13.47;8.43;;;3.30;99.90;;;;;;5048693;28;20349;-68
2023/01/18 12:21:13;;;;;;;11.57;8.10;;;3.30;99.90;;;;;;5043792;28;20216;-69
2023/01/18 12:23:42;;;;;;;14.20;8.03;;;3.40;99.90;;;;;;5049191;28;20231;-69
2023/01/18 12:26:21;;;;;;;10.97;8.13;;;3.40;99.90;;;;;;5048158;28;20214;-69
2023/01/18 12:29:01;;;;;;;10.67;8.10;;;3.50;99.90;;;;;;5049266;28;20219;-69
2023/01/18 12:31:46;;;;;;;15.07;8.23;;;3.60;99.90;;;;;;5044770;28;20661;-69
2023/01/18 12:34:17;;;;;;;14.23;7.80;;;3.60;99.90;;;;;;5052266;28;20297;-69
2023/01/18 12:37:28;;;;;;;14.13;8.47;;;3.60;99.90;;;;;;5044373;28;20632;-69
2023/01/18 12:40:18;;;;;;;12.50;7.77;;;3.70;99.90;;;;;;5040452;28;20723;-69
2023/01/18 12:43:11;;;;;;;11.57;7.97;;;3.70;99.90;;;;;;5057000;28;20234;-69
2023/01/18 12:46:06;;;;;;;11.07;7.87;;;3.80;99.90;;;;;;5049968;28;20291;-69
2023/01/18 12:48:41;;;;;;;13.00;7.83;;;3.70;99.90;;;;;;5040747;28;20235;-69
2023/01/18 12:51:17;;;;;;;11.13;7.27;;;3.70;99.90;;;;;;5044000;28;20293;-69
2023/01/18 12:54:15;;;;;;;10.07;6.70;;;3.80;99.90;;;;;;5045694;28;20990;-69
2023/01/18 12:56:45;;;;;;;12.73;6.63;;;3.90;99.90;;;;;;5033418;28;20312;-70
2023/01/18 12:59:29;;;;;;;13.90;7.27;;;3.90;99.90;;;;;;5044068;28;20671;-69
2023/01/18 13:02:23;;;;;;;12.57;7.57;;;3.90;99.90;;;;;;5040570;28;20262;-70
2023/01/18 13:05:11;;;;;;;15.33;7.20;;;3.90;99.90;;;;;;5043730;28;20549;-70
2023/01/18 13:07:45;;;;;;;11.37;7.07;;;3.90;99.90;;;;;;5043117;28;20201;-70
2023/01/18 13:10:18;;;;;;;10.77;7.50;;;3.90;99.90;;;;;;5026630;28;20572;-69
2023/01/18 13:12:48;;;;;;;12.70;8.20;;;4.00;99.90;;;;;;5041980;28;20244;-68
2023/01/18 13:15:39;;;;;;;11.87;8.30;;;3.90;99.90;;;;;;5042808;28;20668;-70
2023/01/18 13:18:12;;;;;;;13.67;7.40;;;3.90;99.90;;;;;;5042785;28;20234;-70
2023/01/18 13:20:53;;;;;;;15.77;9.20;;;4.00;99.90;;;;;;5038265;28;20212;-71
2023/01/18 13:23:51;;;;;;;11.30;8.03;;;4.00;99.90;;;;;;5038281;28;20201;-70
2023/01/18 13:26:28;;;;;;;12.07;8.23;;;4.00;99.90;;;;;;5043263;28;20203;-69
2023/01/18 13:29:21;;;;;;;14.33;8.40;;;4.00;99.90;;;;;;5046403;28;20676;-69
2023/01/18 13:31:48;;;;;;;10.80;7.83;;;4.00;99.90;;;;;;5039139;28;20218;-69
2023/01/18 13:34:29;;;;;;;10.90;8.13;;;4.00;99.90;;;;;;5040822;28;20222;-69
2023/01/18 13:36:57;;;;;;;9.20;7.63;;;4.00;99.90;;;;;;5036972;28;20681;-69
2023/01/18 13:39:45;;;;;;;12.30;7.13;;;4.00;99.90;;;;;;5047596;28;20227;-70